sensor_id;sensor_type;location;lat;lon;timestamp;P1;durP1;ratioP1;P2;durP2;ratioP2
29774;SDS011;16676;51.202;6.774;2022-12-07T00:03:07;6.07;;;2.10;;
29774;SDS011;16676;51.202;6.774;2022-12-07T00:07:09;3.25;;;1.65;;
29774;SDS011;16676;51.202;6.774;2022-12-07T00:11:12;3.30;;;1.90;;
29774;SDS011;16676;51.202;6.774;2022-12-07T00:15:15;3.22;;;1.60;;
29774;SDS011;16676;51.202;6.774;2022-12-07T00:19:19;3.53;;;1.80;;
29774;SDS011;16676;51.202;6.774;2022-12-07T00:23:21;2.90;;;1.70;;
29774;SDS011;16676;51.202;6.774;2022-12-07T00:27:22;2.30;;;1.30;;
29774;SDS011;16676;51.202;6.774;2022-12-07T00:31:25;2.70;;;1.42;;
29774;SDS011;16676;51.202;6.774;2022-12-07T00:35:30;2.33;;;1.60;;
29774;SDS011;16676;51.202;6.774;2022-12-07T00:39:32;1.85;;;1.45;;
29774;SDS011;16676;51.202;6.774;2022-12-07T00:43:34;4.03;;;1.70;;
29774;SDS011;16676;51.202;6.774;2022-12-07T00:47:36;6.03;;;2.17;;
29774;SDS011;16676;51.202;6.774;2022-12-07T00:51:39;3.13;;;1.73;;
29774;SDS011;16676;51.202;6.774;2022-12-07T00:55:41;1.60;;;1.40;;
29774;SDS011;16676;51.202;6.774;2022-12-07T00:59:43;2.20;;;1.45;;
29774;SDS011;16676;51.202;6.774;2022-12-07T01:03:45;4.25;;;1.85;;
29774;SDS011;16676;51.202;6.774;2022-12-07T01:07:48;2.20;;;1.52;;
29774;SDS011;16676;51.202;6.774;2022-12-07T01:11:50;3.33;;;1.70;;
29774;SDS011;16676;51.202;6.774;2022-12-07T01:15:55;2.33;;;1.60;;
29774;SDS011;16676;51.202;6.774;2022-12-07T01:19:59;3.08;;;1.73;;
29774;SDS011;16676;51.202;6.774;2022-12-07T01:24:03;3.90;;;1.77;;
29774;SDS011;16676;51.202;6.774;2022-12-07T01:28:06;3.22;;;1.70;;
29774;SDS011;16676;51.202;6.774;2022-12-07T01:32:08;2.63;;;1.70;;
29774;SDS011;16676;51.202;6.774;2022-12-07T01:36:12;2.50;;;1.48;;
29774;SDS011;16676;51.202;6.774;2022-12-07T01:40:18;2.00;;;1.55;;
29774;SDS011;16676;51.202;6.774;2022-12-07T01:44:21;5.38;;;1.90;;
29774;SDS011;16676;51.202;6.774;2022-12-07T01:48:24;3.85;;;1.60;;
29774;SDS011;16676;51.202;6.774;2022-12-07T01:52:29;3.28;;;1.60;;
29774;SDS011;16676;51.202;6.774;2022-12-07T01:56:35;1.85;;;1.50;;
29774;SDS011;16676;51.202;6.774;2022-12-07T02:00:41;2.72;;;1.70;;
29774;SDS011;16676;51.202;6.774;2022-12-07T02:04:43;2.55;;;1.70;;
29774;SDS011;16676;51.202;6.774;2022-12-07T02:08:45;3.15;;;1.50;;
29774;SDS011;16676;51.202;6.774;2022-12-07T02:12:50;3.03;;;1.50;;
29774;SDS011;16676;51.202;6.774;2022-12-07T02:17:00;2.65;;;1.52;;
29774;SDS011;16676;51.202;6.774;2022-12-07T02:21:07;2.53;;;1.70;;
29774;SDS011;16676;51.202;6.774;2022-12-07T02:25:13;2.58;;;1.50;;
29774;SDS011;16676;51.202;6.774;2022-12-07T02:29:28;2.30;;;1.42;;
29774;SDS011;16676;51.202;6.774;2022-12-07T02:33:36;3.17;;;1.70;;
29774;SDS011;16676;51.202;6.774;2022-12-07T02:37:43;1.80;;;1.30;;
29774;SDS011;16676;51.202;6.774;2022-12-07T02:41:52;4.50;;;1.33;;
29774;SDS011;16676;51.202;6.774;2022-12-07T02:46:01;2.33;;;1.95;;
29774;SDS011;16676;51.202;6.774;2022-12-07T02:50:07;3.75;;;1.50;;
29774;SDS011;16676;51.202;6.774;2022-12-07T02:54:10;2.42;;;1.60;;
29774;SDS011;16676;51.202;6.774;2022-12-07T02:58:23;3.25;;;1.65;;
29774;SDS011;16676;51.202;6.774;2022-12-07T03:02:38;2.38;;;1.50;;
29774;SDS011;16676;51.202;6.774;2022-12-07T03:06:48;2.80;;;1.60;;
29774;SDS011;16676;51.202;6.774;2022-12-07T03:10:56;2.58;;;1.70;;
29774;SDS011;16676;51.202;6.774;2022-12-07T03:15:01;2.20;;;1.35;;
29774;SDS011;16676;51.202;6.774;2022-12-07T03:19:09;1.80;;;1.40;;
29774;SDS011;16676;51.202;6.774;2022-12-07T03:23:14;2.40;;;1.40;;
29774;SDS011;16676;51.202;6.774;2022-12-07T03:27:20;2.70;;;1.65;;
29774;SDS011;16676;51.202;6.774;2022-12-07T03:31:26;2.55;;;1.48;;
29774;SDS011;16676;51.202;6.774;2022-12-07T03:35:34;2.58;;;1.77;;
29774;SDS011;16676;51.202;6.774;2022-12-07T03:39:43;2.38;;;1.58;;
29774;SDS011;16676;51.202;6.774;2022-12-07T03:43:51;3.80;;;1.40;;
29774;SDS011;16676;51.202;6.774;2022-12-07T03:47:58;1.52;;;1.20;;
29774;SDS011;16676;51.202;6.774;2022-12-07T03:52:11;1.65;;;1.48;;
29774;SDS011;16676;51.202;6.774;2022-12-07T03:56:19;2.67;;;1.75;;
29774;SDS011;16676;51.202;6.774;2022-12-07T04:00:22;2.03;;;1.45;;
29774;SDS011;16676;51.202;6.774;2022-12-07T04:04:25;2.10;;;1.50;;
29774;SDS011;16676;51.202;6.774;2022-12-07T04:08:28;2.03;;;1.30;;
29774;SDS011;16676;51.202;6.774;2022-12-07T04:12:30;3.40;;;1.50;;
29774;SDS011;16676;51.202;6.774;2022-12-07T04:16:32;4.22;;;1.60;;
29774;SDS011;16676;51.202;6.774;2022-12-07T04:20:34;2.22;;;1.40;;
29774;SDS011;16676;51.202;6.774;2022-12-07T04:24:37;2.60;;;1.38;;
29774;SDS011;16676;51.202;6.774;2022-12-07T04:28:39;1.85;;;1.35;;
29774;SDS011;16676;51.202;6.774;2022-12-07T04:32:41;2.60;;;1.50;;
29774;SDS011;16676;51.202;6.774;2022-12-07T04:36:43;1.73;;;1.33;;
29774;SDS011;16676;51.202;6.774;2022-12-07T04:40:47;1.83;;;1.30;;
29774;SDS011;16676;51.202;6.774;2022-12-07T04:44:49;1.88;;;1.33;;
29774;SDS011;16676;51.202;6.774;2022-12-07T04:48:52;1.85;;;1.30;;
29774;SDS011;16676;51.202;6.774;2022-12-07T04:52:54;2.25;;;1.13;;
29774;SDS011;16676;51.202;6.774;2022-12-07T04:56:57;2.25;;;1.58;;
29774;SDS011;16676;51.202;6.774;2022-12-07T05:01:00;2.53;;;1.42;;
29774;SDS011;16676;51.202;6.774;2022-12-07T05:05:02;2.65;;;1.63;;
29774;SDS011;16676;51.202;6.774;2022-12-07T05:09:04;2.28;;;1.40;;
29774;SDS011;16676;51.202;6.774;2022-12-07T05:13:08;2.50;;;1.35;;
29774;SDS011;16676;51.202;6.774;2022-12-07T05:17:10;1.90;;;1.67;;
29774;SDS011;16676;51.202;6.774;2022-12-07T05:21:12;1.85;;;1.40;;
29774;SDS011;16676;51.202;6.774;2022-12-07T05:25:14;2.17;;;1.40;;
29774;SDS011;16676;51.202;6.774;2022-12-07T05:29:17;1.65;;;1.27;;
29774;SDS011;16676;51.202;6.774;2022-12-07T05:33:19;2.58;;;1.23;;
29774;SDS011;16676;51.202;6.774;2022-12-07T05:37:21;1.15;;;1.02;;
29774;SDS011;16676;51.202;6.774;2022-12-07T05:41:23;2.25;;;1.30;;
29774;SDS011;16676;51.202;6.774;2022-12-07T05:45:44;3.67;;;1.58;;
29774;SDS011;16676;51.202;6.774;2022-12-07T05:49:45;2.58;;;1.20;;
29774;SDS011;16676;51.202;6.774;2022-12-07T05:53:47;1.98;;;1.20;;
29774;SDS011;16676;51.202;6.774;2022-12-07T05:57:49;7.53;;;1.30;;
29774;SDS011;16676;51.202;6.774;2022-12-07T06:02:08;3.83;;;1.20;;
29774;SDS011;16676;51.202;6.774;2022-12-07T06:06:11;1.88;;;1.10;;
29774;SDS011;16676;51.202;6.774;2022-12-07T06:10:13;2.72;;;1.25;;
29774;SDS011;16676;51.202;6.774;2022-12-07T06:14:15;8.30;;;1.67;;
29774;SDS011;16676;51.202;6.774;2022-12-07T06:18:18;3.13;;;1.48;;
29774;SDS011;16676;51.202;6.774;2022-12-07T06:22:20;14.18;;;3.30;;
29774;SDS011;16676;51.202;6.774;2022-12-07T06:26:22;11.38;;;4.47;;
29774;SDS011;16676;51.202;6.774;2022-12-07T06:30:23;14.43;;;5.60;;
29774;SDS011;16676;51.202;6.774;2022-12-07T06:34:27;11.25;;;6.05;;
29774;SDS011;16676;51.202;6.774;2022-12-07T06:38:29;15.55;;;6.07;;
29774;SDS011;16676;51.202;6.774;2022-12-07T06:42:31;10.35;;;6.03;;
29774;SDS011;16676;51.202;6.774;2022-12-07T06:46:33;7.95;;;5.40;;
29774;SDS011;16676;51.202;6.774;2022-12-07T06:50:37;13.98;;;5.50;;
29774;SDS011;16676;51.202;6.774;2022-12-07T06:54:39;10.30;;;4.25;;
29774;SDS011;16676;51.202;6.774;2022-12-07T06:58:41;10.60;;;4.45;;
29774;SDS011;16676;51.202;6.774;2022-12-07T07:02:43;12.05;;;3.80;;
29774;SDS011;16676;51.202;6.774;2022-12-07T07:06:46;10.80;;;4.05;;
29774;SDS011;16676;51.202;6.774;2022-12-07T07:10:48;9.18;;;3.42;;
29774;SDS011;16676;51.202;6.774;2022-12-07T07:14:50;8.55;;;3.30;;
29774;SDS011;16676;51.202;6.774;2022-12-07T07:18:52;6.95;;;3.20;;
29774;SDS011;16676;51.202;6.774;2022-12-07T07:22:55;9.30;;;2.80;;
29774;SDS011;16676;51.202;6.774;2022-12-07T07:26:57;7.88;;;3.17;;
29774;SDS011;16676;51.202;6.774;2022-12-07T07:30:59;6.20;;;2.65;;
29774;SDS011;16676;51.202;6.774;2022-12-07T07:35:01;7.13;;;2.30;;
29774;SDS011;16676;51.202;6.774;2022-12-07T07:39:05;5.57;;;2.45;;
29774;SDS011;16676;51.202;6.774;2022-12-07T07:43:07;7.53;;;2.33;;
29774;SDS011;16676;51.202;6.774;2022-12-07T07:47:09;5.13;;;2.08;;
29774;SDS011;16676;51.202;6.774;2022-12-07T07:51:11;5.00;;;2.20;;
29774;SDS011;16676;51.202;6.774;2022-12-07T07:55:14;5.70;;;2.00;;
29774;SDS011;16676;51.202;6.774;2022-12-07T07:59:16;4.80;;;2.10;;
29774;SDS011;16676;51.202;6.774;2022-12-07T08:03:18;6.45;;;1.80;;
29774;SDS011;16676;51.202;6.774;2022-12-07T08:07:20;5.70;;;1.73;;
29774;SDS011;16676;51.202;6.774;2022-12-07T08:11:23;3.38;;;1.80;;
29774;SDS011;16676;51.202;6.774;2022-12-07T08:15:26;3.95;;;1.30;;
29774;SDS011;16676;51.202;6.774;2022-12-07T08:19:30;6.22;;;1.75;;
29774;SDS011;16676;51.202;6.774;2022-12-07T08:23:32;4.18;;;1.60;;
29774;SDS011;16676;51.202;6.774;2022-12-07T08:27:36;2.35;;;1.30;;
29774;SDS011;16676;51.202;6.774;2022-12-07T08:31:38;3.45;;;1.60;;
29774;SDS011;16676;51.202;6.774;2022-12-07T08:35:40;2.53;;;1.40;;
29774;SDS011;16676;51.202;6.774;2022-12-07T08:39:41;3.75;;;1.52;;
29774;SDS011;16676;51.202;6.774;2022-12-07T08:43:45;2.75;;;1.50;;
29774;SDS011;16676;51.202;6.774;2022-12-07T08:47:48;3.97;;;1.55;;
29774;SDS011;16676;51.202;6.774;2022-12-07T08:51:54;4.57;;;1.40;;
29774;SDS011;16676;51.202;6.774;2022-12-07T08:55:57;2.97;;;1.45;;
29774;SDS011;16676;51.202;6.774;2022-12-07T09:00:00;3.47;;;1.10;;
29774;SDS011;16676;51.202;6.774;2022-12-07T09:04:03;4.07;;;1.30;;
29774;SDS011;16676;51.202;6.774;2022-12-07T09:08:05;2.80;;;1.10;;
29774;SDS011;16676;51.202;6.774;2022-12-07T09:12:08;4.32;;;1.40;;
29774;SDS011;16676;51.202;6.774;2022-12-07T09:16:11;2.63;;;1.40;;
29774;SDS011;16676;51.202;6.774;2022-12-07T09:20:13;1.75;;;1.00;;
29774;SDS011;16676;51.202;6.774;2022-12-07T09:24:15;2.22;;;1.30;;
29774;SDS011;16676;51.202;6.774;2022-12-07T09:28:17;1.75;;;1.15;;
29774;SDS011;16676;51.202;6.774;2022-12-07T09:32:20;2.92;;;1.15;;
29774;SDS011;16676;51.202;6.774;2022-12-07T09:36:23;3.40;;;1.23;;
29774;SDS011;16676;51.202;6.774;2022-12-07T09:40:25;2.83;;;1.35;;
29774;SDS011;16676;51.202;6.774;2022-12-07T09:44:29;2.88;;;1.20;;
29774;SDS011;16676;51.202;6.774;2022-12-07T09:48:32;2.25;;;1.20;;
29774;SDS011;16676;51.202;6.774;2022-12-07T09:52:36;3.08;;;1.20;;
29774;SDS011;16676;51.202;6.774;2022-12-07T09:56:38;4.18;;;1.15;;
29774;SDS011;16676;51.202;6.774;2022-12-07T10:00:40;2.20;;;1.20;;
29774;SDS011;16676;51.202;6.774;2022-12-07T10:04:44;2.35;;;1.00;;
29774;SDS011;16676;51.202;6.774;2022-12-07T10:08:47;1.85;;;0.90;;
29774;SDS011;16676;51.202;6.774;2022-12-07T10:12:52;2.33;;;1.15;;
29774;SDS011;16676;51.202;6.774;2022-12-07T10:16:56;2.07;;;1.07;;
29774;SDS011;16676;51.202;6.774;2022-12-07T10:21:04;1.70;;;0.90;;
29774;SDS011;16676;51.202;6.774;2022-12-07T10:25:16;2.58;;;1.08;;
29774;SDS011;16676;51.202;6.774;2022-12-07T10:29:21;2.05;;;1.00;;
29774;SDS011;16676;51.202;6.774;2022-12-07T10:33:28;3.33;;;0.98;;
29774;SDS011;16676;51.202;6.774;2022-12-07T10:37:33;2.15;;;1.05;;
29774;SDS011;16676;51.202;6.774;2022-12-07T10:41:54;3.47;;;1.10;;
29774;SDS011;16676;51.202;6.774;2022-12-07T10:46:05;1.52;;;0.82;;
29774;SDS011;16676;51.202;6.774;2022-12-07T10:55:06;1.80;;;0.77;;
29774;SDS011;16676;51.202;6.774;2022-12-07T10:59:23;3.40;;;1.27;;
29774;SDS011;16676;51.202;6.774;2022-12-07T11:03:43;3.00;;;1.10;;
29774;SDS011;16676;51.202;6.774;2022-12-07T11:07:57;2.97;;;1.05;;
29774;SDS011;16676;51.202;6.774;2022-12-07T11:12:09;1.80;;;1.00;;
29774;SDS011;16676;51.202;6.774;2022-12-07T11:16:19;6.32;;;1.20;;
29774;SDS011;16676;51.202;6.774;2022-12-07T11:20:34;1.15;;;0.70;;
29774;SDS011;16676;51.202;6.774;2022-12-07T11:24:44;1.55;;;0.90;;
29774;SDS011;16676;51.202;6.774;2022-12-07T11:28:58;2.97;;;1.10;;
29774;SDS011;16676;51.202;6.774;2022-12-07T11:33:12;2.13;;;1.27;;
29774;SDS011;16676;51.202;6.774;2022-12-07T11:37:21;1.98;;;1.05;;
29774;SDS011;16676;51.202;6.774;2022-12-07T11:41:31;2.85;;;1.02;;
29774;SDS011;16676;51.202;6.774;2022-12-07T11:45:39;2.17;;;0.90;;
29774;SDS011;16676;51.202;6.774;2022-12-07T11:49:47;1.63;;;0.75;;
29774;SDS011;16676;51.202;6.774;2022-12-07T11:53:55;2.17;;;1.10;;
29774;SDS011;16676;51.202;6.774;2022-12-07T11:58:03;2.25;;;1.30;;
29774;SDS011;16676;51.202;6.774;2022-12-07T12:02:13;1.40;;;1.00;;
29774;SDS011;16676;51.202;6.774;2022-12-07T12:06:17;1.42;;;0.85;;
29774;SDS011;16676;51.202;6.774;2022-12-07T12:10:20;1.75;;;0.90;;
29774;SDS011;16676;51.202;6.774;2022-12-07T12:14:30;1.50;;;0.90;;
29774;SDS011;16676;51.202;6.774;2022-12-07T12:23:17;1.42;;;1.08;;
29774;SDS011;16676;51.202;6.774;2022-12-07T12:27:23;1.40;;;0.90;;
29774;SDS011;16676;51.202;6.774;2022-12-07T12:31:34;1.67;;;0.90;;
29774;SDS011;16676;51.202;6.774;2022-12-07T12:35:40;2.33;;;0.98;;
29774;SDS011;16676;51.202;6.774;2022-12-07T12:39:43;2.95;;;1.10;;
29774;SDS011;16676;51.202;6.774;2022-12-07T12:53:41;2.35;;;1.15;;
29774;SDS011;16676;51.202;6.774;2022-12-07T12:57:43;2.45;;;0.95;;
29774;SDS011;16676;51.202;6.774;2022-12-07T13:01:45;1.20;;;0.93;;
29774;SDS011;16676;51.202;6.774;2022-12-07T13:05:48;1.08;;;0.75;;
29774;SDS011;16676;51.202;6.774;2022-12-07T13:10:28;1.58;;;0.85;;
29774;SDS011;16676;51.202;6.774;2022-12-07T13:18:58;1.55;;;0.70;;
29774;SDS011;16676;51.202;6.774;2022-12-07T13:23:00;2.90;;;0.70;;
29774;SDS011;16676;51.202;6.774;2022-12-07T13:27:06;2.28;;;0.90;;
29774;SDS011;16676;51.202;6.774;2022-12-07T13:31:18;1.60;;;0.80;;
29774;SDS011;16676;51.202;6.774;2022-12-07T13:35:41;1.60;;;0.82;;
29774;SDS011;16676;51.202;6.774;2022-12-07T13:39:44;1.20;;;0.75;;
29774;SDS011;16676;51.202;6.774;2022-12-07T13:43:51;2.53;;;1.08;;
29774;SDS011;16676;51.202;6.774;2022-12-07T13:47:55;1.50;;;0.90;;
29774;SDS011;16676;51.202;6.774;2022-12-07T13:52:13;1.65;;;0.95;;
29774;SDS011;16676;51.202;6.774;2022-12-07T13:56:17;2.05;;;0.93;;
29774;SDS011;16676;51.202;6.774;2022-12-07T14:00:24;1.65;;;1.08;;
29774;SDS011;16676;51.202;6.774;2022-12-07T14:04:30;1.73;;;1.00;;
29774;SDS011;16676;51.202;6.774;2022-12-07T14:08:34;2.63;;;0.98;;
29774;SDS011;16676;51.202;6.774;2022-12-07T14:12:36;2.05;;;0.80;;
29774;SDS011;16676;51.202;6.774;2022-12-07T14:16:39;2.22;;;0.98;;
29774;SDS011;16676;51.202;6.774;2022-12-07T14:20:41;2.38;;;0.90;;
29774;SDS011;16676;51.202;6.774;2022-12-07T14:24:44;2.08;;;1.00;;
29774;SDS011;16676;51.202;6.774;2022-12-07T14:28:46;1.85;;;1.08;;
29774;SDS011;16676;51.202;6.774;2022-12-07T14:32:52;1.75;;;0.90;;
29774;SDS011;16676;51.202;6.774;2022-12-07T14:36:55;1.63;;;1.00;;
29774;SDS011;16676;51.202;6.774;2022-12-07T14:40:57;2.67;;;1.00;;
29774;SDS011;16676;51.202;6.774;2022-12-07T14:45:20;1.40;;;0.85;;
29774;SDS011;16676;51.202;6.774;2022-12-07T14:49:24;1.95;;;0.95;;
29774;SDS011;16676;51.202;6.774;2022-12-07T14:53:27;1.98;;;0.80;;
29774;SDS011;16676;51.202;6.774;2022-12-07T14:57:32;1.83;;;0.90;;
29774;SDS011;16676;51.202;6.774;2022-12-07T15:01:34;1.73;;;0.90;;
29774;SDS011;16676;51.202;6.774;2022-12-07T15:05:38;1.33;;;0.73;;
29774;SDS011;16676;51.202;6.774;2022-12-07T15:09:40;1.50;;;1.10;;
29774;SDS011;16676;51.202;6.774;2022-12-07T15:13:42;1.58;;;1.00;;
29774;SDS011;16676;51.202;6.774;2022-12-07T15:18:01;2.72;;;1.00;;
29774;SDS011;16676;51.202;6.774;2022-12-07T15:22:04;2.25;;;1.30;;
29774;SDS011;16676;51.202;6.774;2022-12-07T15:26:06;2.60;;;1.25;;
29774;SDS011;16676;51.202;6.774;2022-12-07T15:30:09;2.85;;;1.42;;
29774;SDS011;16676;51.202;6.774;2022-12-07T15:34:11;2.20;;;1.05;;
29774;SDS011;16676;51.202;6.774;2022-12-07T15:38:14;2.33;;;1.30;;
29774;SDS011;16676;51.202;6.774;2022-12-07T15:42:16;1.83;;;1.00;;
29774;SDS011;16676;51.202;6.774;2022-12-07T15:46:18;2.60;;;1.30;;
29774;SDS011;16676;51.202;6.774;2022-12-07T15:50:20;1.98;;;1.10;;
29774;SDS011;16676;51.202;6.774;2022-12-07T15:54:25;2.38;;;1.30;;
29774;SDS011;16676;51.202;6.774;2022-12-07T15:58:28;1.52;;;1.15;;
29774;SDS011;16676;51.202;6.774;2022-12-07T16:02:32;1.85;;;0.90;;
29774;SDS011;16676;51.202;6.774;2022-12-07T16:06:34;1.80;;;1.10;;
29774;SDS011;16676;51.202;6.774;2022-12-07T16:10:37;2.17;;;1.00;;
29774;SDS011;16676;51.202;6.774;2022-12-07T16:14:42;2.80;;;1.40;;
29774;SDS011;16676;51.202;6.774;2022-12-07T16:18:44;1.80;;;0.95;;
29774;SDS011;16676;51.202;6.774;2022-12-07T16:22:50;2.85;;;1.10;;
29774;SDS011;16676;51.202;6.774;2022-12-07T16:26:53;2.00;;;0.95;;
29774;SDS011;16676;51.202;6.774;2022-12-07T16:30:59;2.10;;;1.20;;
29774;SDS011;16676;51.202;6.774;2022-12-07T16:35:02;1.50;;;0.90;;
29774;SDS011;16676;51.202;6.774;2022-12-07T16:39:05;3.55;;;1.02;;
29774;SDS011;16676;51.202;6.774;2022-12-07T16:43:13;3.63;;;0.93;;
29774;SDS011;16676;51.202;6.774;2022-12-07T16:47:16;1.77;;;0.98;;
29774;SDS011;16676;51.202;6.774;2022-12-07T16:51:18;4.40;;;1.10;;
29774;SDS011;16676;51.202;6.774;2022-12-07T16:55:20;3.67;;;0.90;;
29774;SDS011;16676;51.202;6.774;2022-12-07T16:59:23;3.42;;;1.40;;
29774;SDS011;16676;51.202;6.774;2022-12-07T17:03:25;2.33;;;1.20;;
29774;SDS011;16676;51.202;6.774;2022-12-07T17:07:27;2.25;;;1.30;;
29774;SDS011;16676;51.202;6.774;2022-12-07T17:11:29;1.48;;;0.90;;
29774;SDS011;16676;51.202;6.774;2022-12-07T17:15:33;3.40;;;1.23;;
29774;SDS011;16676;51.202;6.774;2022-12-07T17:19:35;1.73;;;1.15;;
29774;SDS011;16676;51.202;6.774;2022-12-07T17:23:37;4.50;;;0.98;;
29774;SDS011;16676;51.202;6.774;2022-12-07T17:27:39;3.15;;;1.20;;
29774;SDS011;16676;51.202;6.774;2022-12-07T17:31:42;2.10;;;1.27;;
29774;SDS011;16676;51.202;6.774;2022-12-07T17:35:44;1.50;;;0.98;;
29774;SDS011;16676;51.202;6.774;2022-12-07T17:39:46;1.48;;;1.00;;
29774;SDS011;16676;51.202;6.774;2022-12-07T17:43:48;1.70;;;1.13;;
29774;SDS011;16676;51.202;6.774;2022-12-07T17:47:51;2.42;;;1.15;;
29774;SDS011;16676;51.202;6.774;2022-12-07T17:51:53;2.40;;;1.30;;
29774;SDS011;16676;51.202;6.774;2022-12-07T17:56:13;1.77;;;0.95;;
29774;SDS011;16676;51.202;6.774;2022-12-07T18:00:15;1.42;;;1.15;;
29774;SDS011;16676;51.202;6.774;2022-12-07T18:04:20;2.65;;;1.05;;
29774;SDS011;16676;51.202;6.774;2022-12-07T18:08:21;7.40;;;1.60;;
29774;SDS011;16676;51.202;6.774;2022-12-07T18:12:23;5.07;;;1.08;;
29774;SDS011;16676;51.202;6.774;2022-12-07T18:16:26;4.85;;;1.42;;
29774;SDS011;16676;51.202;6.774;2022-12-07T18:20:31;5.30;;;1.33;;
29774;SDS011;16676;51.202;6.774;2022-12-07T18:24:33;9.50;;;2.63;;
29774;SDS011;16676;51.202;6.774;2022-12-07T18:28:37;5.60;;;2.80;;
29774;SDS011;16676;51.202;6.774;2022-12-07T18:32:39;10.60;;;2.83;;
29774;SDS011;16676;51.202;6.774;2022-12-07T18:36:43;4.40;;;2.20;;
29774;SDS011;16676;51.202;6.774;2022-12-07T18:40:46;3.28;;;1.88;;
29774;SDS011;16676;51.202;6.774;2022-12-07T18:44:48;5.47;;;2.10;;
29774;SDS011;16676;51.202;6.774;2022-12-07T18:48:50;6.55;;;2.10;;
29774;SDS011;16676;51.202;6.774;2022-12-07T18:52:53;5.05;;;1.80;;
29774;SDS011;16676;51.202;6.774;2022-12-07T18:56:58;3.95;;;1.75;;
29774;SDS011;16676;51.202;6.774;2022-12-07T19:01:00;7.50;;;2.30;;
29774;SDS011;16676;51.202;6.774;2022-12-07T19:05:02;5.57;;;1.75;;
29774;SDS011;16676;51.202;6.774;2022-12-07T19:09:05;4.22;;;1.75;;
29774;SDS011;16676;51.202;6.774;2022-12-07T19:13:08;3.55;;;1.52;;
29774;SDS011;16676;51.202;6.774;2022-12-07T19:17:11;5.32;;;1.80;;
29774;SDS011;16676;51.202;6.774;2022-12-07T19:21:13;4.93;;;1.77;;
29774;SDS011;16676;51.202;6.774;2022-12-07T19:25:18;4.45;;;1.90;;
29774;SDS011;16676;51.202;6.774;2022-12-07T19:29:19;2.78;;;1.60;;
29774;SDS011;16676;51.202;6.774;2022-12-07T19:33:21;4.18;;;1.55;;
29774;SDS011;16676;51.202;6.774;2022-12-07T19:37:23;2.95;;;1.60;;
29774;SDS011;16676;51.202;6.774;2022-12-07T19:41:26;8.95;;;2.00;;
29774;SDS011;16676;51.202;6.774;2022-12-07T19:45:34;3.30;;;1.40;;
29774;SDS011;16676;51.202;6.774;2022-12-07T19:49:36;2.47;;;1.40;;
29774;SDS011;16676;51.202;6.774;2022-12-07T19:53:38;6.43;;;1.77;;
29774;SDS011;16676;51.202;6.774;2022-12-07T19:57:41;2.58;;;1.70;;
29774;SDS011;16676;51.202;6.774;2022-12-07T20:01:43;2.72;;;1.50;;
29774;SDS011;16676;51.202;6.774;2022-12-07T20:05:45;3.83;;;1.67;;
29774;SDS011;16676;51.202;6.774;2022-12-07T20:09:47;4.15;;;1.80;;
29774;SDS011;16676;51.202;6.774;2022-12-07T20:13:50;5.47;;;1.70;;
29774;SDS011;16676;51.202;6.774;2022-12-07T20:17:52;2.92;;;1.52;;
29774;SDS011;16676;51.202;6.774;2022-12-07T20:21:54;3.45;;;1.30;;
29774;SDS011;16676;51.202;6.774;2022-12-07T20:26:00;3.72;;;1.80;;
29774;SDS011;16676;51.202;6.774;2022-12-07T20:30:05;3.47;;;1.45;;
29774;SDS011;16676;51.202;6.774;2022-12-07T20:34:08;2.10;;;1.33;;
29774;SDS011;16676;51.202;6.774;2022-12-07T20:38:11;2.25;;;1.23;;
29774;SDS011;16676;51.202;6.774;2022-12-07T20:42:13;2.42;;;1.25;;
29774;SDS011;16676;51.202;6.774;2022-12-07T20:46:40;3.53;;;1.58;;
29774;SDS011;16676;51.202;6.774;2022-12-07T20:50:42;5.35;;;1.42;;
29774;SDS011;16676;51.202;6.774;2022-12-07T20:54:44;3.67;;;1.60;;
29774;SDS011;16676;51.202;6.774;2022-12-07T20:58:46;5.95;;;1.45;;
29774;SDS011;16676;51.202;6.774;2022-12-07T21:02:49;5.38;;;1.40;;
29774;SDS011;16676;51.202;6.774;2022-12-07T21:06:51;3.83;;;1.50;;
29774;SDS011;16676;51.202;6.774;2022-12-07T21:10:53;5.25;;;1.63;;
29774;SDS011;16676;51.202;6.774;2022-12-07T21:14:55;3.28;;;1.50;;
29774;SDS011;16676;51.202;6.774;2022-12-07T21:18:59;4.13;;;1.42;;
29774;SDS011;16676;51.202;6.774;2022-12-07T21:23:02;3.45;;;1.30;;
29774;SDS011;16676;51.202;6.774;2022-12-07T21:27:04;2.83;;;1.60;;
29774;SDS011;16676;51.202;6.774;2022-12-07T21:31:06;3.53;;;1.70;;
29774;SDS011;16676;51.202;6.774;2022-12-07T21:35:10;6.60;;;1.20;;
29774;SDS011;16676;51.202;6.774;2022-12-07T21:39:12;2.75;;;1.30;;
29774;SDS011;16676;51.202;6.774;2022-12-07T21:43:14;2.42;;;1.38;;
29774;SDS011;16676;51.202;6.774;2022-12-07T21:47:16;2.55;;;1.40;;
29774;SDS011;16676;51.202;6.774;2022-12-07T21:51:19;3.50;;;1.70;;
29774;SDS011;16676;51.202;6.774;2022-12-07T21:55:22;6.13;;;1.88;;
29774;SDS011;16676;51.202;6.774;2022-12-07T21:59:24;3.03;;;1.30;;
29774;SDS011;16676;51.202;6.774;2022-12-07T22:03:26;2.65;;;1.30;;
29774;SDS011;16676;51.202;6.774;2022-12-07T22:07:29;3.05;;;1.40;;
29774;SDS011;16676;51.202;6.774;2022-12-07T22:11:31;2.10;;;1.10;;
29774;SDS011;16676;51.202;6.774;2022-12-07T22:15:33;7.32;;;1.20;;
29774;SDS011;16676;51.202;6.774;2022-12-07T22:19:35;2.38;;;1.30;;
29774;SDS011;16676;51.202;6.774;2022-12-07T22:23:38;2.15;;;1.10;;
29774;SDS011;16676;51.202;6.774;2022-12-07T22:27:40;2.35;;;1.30;;
29774;SDS011;16676;51.202;6.774;2022-12-07T22:31:43;3.03;;;1.35;;
29774;SDS011;16676;51.202;6.774;2022-12-07T22:35:50;2.05;;;1.25;;
29774;SDS011;16676;51.202;6.774;2022-12-07T22:43:56;2.47;;;1.10;;
29774;SDS011;16676;51.202;6.774;2022-12-07T22:47:59;2.33;;;1.25;;
29774;SDS011;16676;51.202;6.774;2022-12-07T22:52:01;2.13;;;1.35;;
29774;SDS011;16676;51.202;6.774;2022-12-07T22:56:04;2.55;;;1.17;;
29774;SDS011;16676;51.202;6.774;2022-12-07T23:00:07;1.88;;;1.10;;
29774;SDS011;16676;51.202;6.774;2022-12-07T23:04:10;3.53;;;1.50;;
29774;SDS011;16676;51.202;6.774;2022-12-07T23:08:12;2.75;;;1.52;;
29774;SDS011;16676;51.202;6.774;2022-12-07T23:12:16;1.92;;;1.25;;
29774;SDS011;16676;51.202;6.774;2022-12-07T23:16:35;2.35;;;1.30;;
29774;SDS011;16676;51.202;6.774;2022-12-07T23:20:37;3.60;;;1.70;;
29774;SDS011;16676;51.202;6.774;2022-12-07T23:24:39;3.42;;;1.88;;
29774;SDS011;16676;51.202;6.774;2022-12-07T23:28:42;3.35;;;1.35;;
29774;SDS011;16676;51.202;6.774;2022-12-07T23:32:44;4.38;;;1.55;;
29774;SDS011;16676;51.202;6.774;2022-12-07T23:36:47;4.00;;;1.40;;
29774;SDS011;16676;51.202;6.774;2022-12-07T23:40:48;3.35;;;1.38;;
29774;SDS011;16676;51.202;6.774;2022-12-07T23:44:52;4.63;;;1.65;;
29774;SDS011;16676;51.202;6.774;2022-12-07T23:48:54;2.58;;;1.20;;
29774;SDS011;16676;51.202;6.774;2022-12-07T23:52:57;2.85;;;1.50;;
29774;SDS011;16676;51.202;6.774;2022-12-07T23:56:59;2.20;;;1.30;;
